Time;durP1;ratioP1;P1;durP2;ratioP2;P2;SDS_P1;SDS_P2;PMS_P1;PMS_P2;Temp;Humidity;BMP_temperature;BMP_pressure;BME280_temperature;BME280_humidity;BME280_pressure;Samples;Min_cycle;Max_cycle;Signal;HPM_P1;HPM_P2
2022/05/13 00:00:39;;;;;;;11.13;7.37;;;21.60;99.90;;;;;;5001070;28;20209;-90
2022/05/13 00:03:05;;;;;;;12.00;7.77;;;21.50;99.90;;;;;;5002316;28;20432;-93
2022/05/13 00:05:30;;;;;;;12.50;8.30;;;21.50;99.90;;;;;;5002179;28;20424;-90
2022/05/13 00:07:56;;;;;;;10.63;7.70;;;21.50;99.90;;;;;;5002039;28;20247;-92
2022/05/13 00:10:24;;;;;;;10.43;7.50;;;21.40;99.90;;;;;;5019326;28;20175;-89
2022/05/13 00:12:51;;;;;;;10.57;7.50;;;21.40;99.90;;;;;;5000927;28;20261;-91
2022/05/13 00:15:20;;;;;;;9.53;7.67;;;21.40;99.90;;;;;;5024853;28;20896;-91
2022/05/13 00:17:47;;;;;;;9.37;7.13;;;21.40;99.90;;;;;;5003572;28;20518;-91
2022/05/13 00:20:14;;;;;;;10.90;7.07;;;21.30;99.90;;;;;;5004412;28;20490;-92
2022/05/13 00:22:49;;;;;;;10.00;7.57;;;21.30;99.90;;;;;;5004945;28;20456;-90
2022/05/13 00:25:17;;;;;;;9.97;8.20;;;21.20;99.90;;;;;;5002006;28;20434;-92
2022/05/13 00:27:43;;;;;;;8.90;7.30;;;21.20;99.90;;;;;;5004635;28;20450;-91
2022/05/13 00:30:09;;;;;;;11.00;7.97;;;21.20;99.90;;;;;;5007257;28;20405;-90
2022/05/13 00:32:36;;;;;;;11.63;7.20;;;21.20;99.90;;;;;;4980547;28;20203;-91
2022/05/13 00:35:03;;;;;;;11.43;7.80;;;21.20;99.90;;;;;;4995992;28;20460;-90
2022/05/13 00:37:29;;;;;;;10.23;7.53;;;21.20;99.90;;;;;;4996034;28;20515;-91
2022/05/13 00:39:55;;;;;;;10.80;7.57;;;21.20;99.90;;;;;;4988188;28;20537;-90
2022/05/13 00:42:22;;;;;;;8.87;6.80;;;21.20;99.90;;;;;;5002157;28;20286;-92
2022/05/13 00:44:48;;;;;;;10.80;7.77;;;21.20;99.90;;;;;;4984675;28;20188;-92
2022/05/13 00:47:14;;;;;;;10.47;7.60;;;21.20;99.90;;;;;;4977950;28;20472;-90
2022/05/13 00:49:41;;;;;;;9.23;7.37;;;21.20;99.90;;;;;;4995557;28;20404;-90
2022/05/13 00:52:10;;;;;;;11.80;8.00;;;21.20;99.90;;;;;;4978193;28;20456;-91
2022/05/13 00:54:37;;;;;;;11.03;8.50;;;21.20;99.90;;;;;;4978315;28;20417;-90
2022/05/13 00:57:03;;;;;;;10.10;6.87;;;21.20;99.90;;;;;;4996282;28;20789;-90
2022/05/13 00:59:32;;;;;;;11.10;7.87;;;21.20;99.90;;;;;;4995571;28;20463;-89
2022/05/13 01:01:58;;;;;;;11.63;8.40;;;21.20;99.90;;;;;;4978513;28;20449;-89
2022/05/13 01:04:25;;;;;;;12.07;8.47;;;21.10;99.90;;;;;;4996342;28;20793;-89
2022/05/13 01:06:54;;;;;;;10.20;7.50;;;21.10;99.90;;;;;;4979100;28;20214;-92
2022/05/13 01:09:21;;;;;;;11.83;7.73;;;21.10;99.90;;;;;;4979727;28;20507;-91
2022/05/13 01:11:52;;;;;;;9.03;7.60;;;21.00;99.90;;;;;;4998204;28;20442;-92
2022/05/13 01:14:33;;;;;;;10.77;6.97;;;21.00;99.90;;;;;;4978846;28;20429;-92
2022/05/13 01:20:17;;;;;;;11.97;8.60;;;20.90;99.90;;;;;;4997074;28;21002;-92
2022/05/13 01:22:55;;;;;;;10.73;8.10;;;20.90;99.90;;;;;;4998401;28;20435;-92
2022/05/13 01:25:24;;;;;;;9.83;7.83;;;20.80;99.90;;;;;;4981403;28;20409;-92
2022/05/13 01:27:51;;;;;;;10.87;7.80;;;20.80;99.90;;;;;;4996638;28;20514;-90
2022/05/13 01:30:24;;;;;;;12.17;7.60;;;20.70;99.90;;;;;;5000358;28;20424;-89
2022/05/13 01:32:50;;;;;;;9.30;7.53;;;20.70;99.90;;;;;;5001465;28;20481;-92
2022/05/13 01:35:15;;;;;;;10.47;8.20;;;20.60;99.90;;;;;;5002152;28;20418;-90
2022/05/13 01:37:41;;;;;;;10.87;7.80;;;20.60;99.90;;;;;;5004628;28;20209;-92
2022/05/13 01:40:08;;;;;;;10.93;8.00;;;20.50;99.90;;;;;;5025745;28;20482;-91
2022/05/13 01:42:34;;;;;;;12.80;8.20;;;20.50;99.90;;;;;;5018319;28;20608;-91
2022/05/13 01:45:01;;;;;;;13.93;9.63;;;20.40;99.90;;;;;;5001345;28;20510;-90
2022/05/13 01:47:28;;;;;;;10.70;8.37;;;20.40;99.90;;;;;;5019529;28;20969;-90
2022/05/13 01:49:54;;;;;;;11.93;8.67;;;20.40;99.90;;;;;;5019718;28;20408;-90
2022/05/13 01:52:20;;;;;;;9.70;7.80;;;20.40;99.90;;;;;;5002569;28;20514;-90
2022/05/13 01:54:46;;;;;;;11.40;8.07;;;20.40;99.90;;;;;;5019330;28;20411;-91
2022/05/13 01:57:12;;;;;;;12.13;9.17;;;20.30;99.90;;;;;;5018840;28;20700;-90
2022/05/13 01:59:38;;;;;;;10.37;8.50;;;20.30;99.90;;;;;;5018653;28;20809;-90
2022/05/13 02:02:04;;;;;;;10.90;7.83;;;20.30;99.90;;;;;;5001074;28;20462;-91
2022/05/13 02:04:29;;;;;;;12.07;8.80;;;20.30;99.90;;;;;;5001110;28;20415;-89
2022/05/13 02:06:55;;;;;;;16.70;9.53;;;20.20;99.90;;;;;;5002575;28;20217;-91
2022/05/13 02:09:21;;;;;;;11.60;8.70;;;20.20;99.90;;;;;;5019427;28;20212;-90
2022/05/13 02:11:47;;;;;;;12.17;9.10;;;20.20;99.90;;;;;;5001584;28;20244;-90
2022/05/13 02:14:14;;;;;;;14.00;9.60;;;20.10;99.90;;;;;;5002234;28;20639;-92
2022/05/13 02:16:40;;;;;;;13.77;9.50;;;20.10;99.90;;;;;;5001578;28;20458;-90
2022/05/13 02:19:06;;;;;;;10.47;7.27;;;20.10;99.90;;;;;;5003193;28;20458;-91
2022/05/13 02:21:31;;;;;;;11.30;8.90;;;20.10;99.90;;;;;;5002980;28;20193;-90
2022/05/13 02:23:57;;;;;;;13.53;8.97;;;20.00;99.90;;;;;;5019361;28;20170;-89
2022/05/13 02:26:23;;;;;;;11.07;9.17;;;20.00;99.90;;;;;;4995530;28;20186;-92
2022/05/13 02:28:49;;;;;;;10.93;8.07;;;20.00;99.90;;;;;;4982591;28;20189;-90
2022/05/13 02:31:15;;;;;;;12.80;8.53;;;19.90;99.90;;;;;;4983886;28;20187;-91
2022/05/13 02:33:41;;;;;;;13.00;9.30;;;19.90;99.90;;;;;;5001553;28;20209;-91
2022/05/13 02:36:07;;;;;;;13.00;8.77;;;19.90;99.90;;;;;;4984987;28;20433;-91
2022/05/13 02:38:34;;;;;;;14.87;8.90;;;19.80;99.90;;;;;;4982782;28;20440;-91
2022/05/13 02:41:11;;;;;;;17.37;10.10;;;19.80;99.90;;;;;;4999531;28;20473;-90
2022/05/13 02:43:40;;;;;;;14.43;9.40;;;19.80;99.90;;;;;;5001552;28;20462;-92
2022/05/13 02:46:06;;;;;;;13.63;9.67;;;19.70;99.90;;;;;;4984485;28;20439;-92
2022/05/13 02:48:32;;;;;;;14.10;9.10;;;19.60;99.90;;;;;;5000623;28;20505;-90
2022/05/13 02:50:58;;;;;;;15.40;9.47;;;19.60;99.90;;;;;;5001164;28;20453;-90
2022/05/13 02:53:24;;;;;;;16.03;9.03;;;19.50;99.90;;;;;;4985277;28;20201;-89
2022/05/13 02:55:50;;;;;;;14.53;9.77;;;19.50;99.90;;;;;;4989114;28;20553;-91
2022/05/13 02:58:16;;;;;;;11.73;8.50;;;19.40;99.90;;;;;;4980057;28;20443;-90
2022/05/13 03:00:44;;;;;;;12.63;9.10;;;19.40;99.90;;;;;;4979945;28;20478;-92
2022/05/13 03:03:11;;;;;;;15.73;9.60;;;19.30;99.90;;;;;;4980000;28;20824;-92
2022/05/13 03:05:38;;;;;;;14.23;8.50;;;19.40;99.90;;;;;;4998176;28;20509;-89
2022/05/13 03:08:05;;;;;;;11.83;8.53;;;19.40;99.90;;;;;;4981368;28;20446;-92
2022/05/13 03:10:35;;;;;;;13.20;9.47;;;19.40;99.90;;;;;;4998375;28;20433;-91
2022/05/13 03:13:01;;;;;;;13.50;9.40;;;19.40;99.90;;;;;;4980904;28;20465;-92
2022/05/13 03:15:27;;;;;;;12.97;9.30;;;19.40;99.90;;;;;;4997220;28;20817;-92
2022/05/13 03:17:53;;;;;;;11.57;9.23;;;19.40;99.90;;;;;;4981198;28;20215;-92
2022/05/13 03:20:20;;;;;;;12.43;9.03;;;19.40;99.90;;;;;;4981831;28;20467;-89
2022/05/13 03:22:47;;;;;;;13.20;10.00;;;19.40;99.90;;;;;;4982536;28;20494;-92
2022/05/13 03:25:13;;;;;;;15.40;9.30;;;19.50;99.90;;;;;;4981014;28;20413;-92
2022/05/13 03:27:40;;;;;;;12.80;9.30;;;19.50;99.90;;;;;;5013931;28;20450;-89
2022/05/13 03:30:09;;;;;;;14.67;9.23;;;19.50;99.90;;;;;;5017264;28;20769;-91
2022/05/13 03:32:35;;;;;;;15.57;10.10;;;19.50;99.90;;;;;;5000799;28;20493;-92
2022/05/13 03:35:00;;;;;;;14.63;8.83;;;19.50;99.90;;;;;;5000890;28;20421;-90
2022/05/13 03:37:26;;;;;;;13.77;9.63;;;19.50;99.90;;;;;;5018458;28;20212;-92
2022/05/13 03:39:51;;;;;;;17.10;10.40;;;19.50;99.90;;;;;;5000755;28;20585;-88
2022/05/13 03:42:19;;;;;;;13.00;9.07;;;19.50;99.90;;;;;;4999955;28;20214;-92
2022/05/13 03:44:45;;;;;;;17.63;11.80;;;19.50;99.90;;;;;;5001056;28;20211;-90
2022/05/13 03:47:11;;;;;;;17.50;11.10;;;19.50;99.90;;;;;;5018917;28;20949;-90
2022/05/13 03:49:36;;;;;;;14.33;10.80;;;19.50;99.90;;;;;;5018541;28;20235;-91
2022/05/13 03:52:02;;;;;;;14.03;9.13;;;19.60;99.90;;;;;;5000488;28;20263;-90
2022/05/13 03:54:28;;;;;;;12.27;9.07;;;19.60;99.90;;;;;;4999553;28;20583;-90
2022/05/13 03:56:54;;;;;;;11.23;9.87;;;19.60;99.90;;;;;;5001523;28;20504;-91
2022/05/13 03:59:20;;;;;;;17.93;10.17;;;19.60;99.90;;;;;;5005388;28;20482;-91
2022/05/13 04:01:45;;;;;;;14.27;8.97;;;19.60;99.90;;;;;;5009722;28;20615;-91
2022/05/13 04:04:11;;;;;;;12.70;10.43;;;19.60;99.90;;;;;;4994989;28;20188;-90
2022/05/13 04:09:21;;;;;;;14.20;10.47;;;19.60;99.90;;;;;;5014685;28;20203;-92
2022/05/13 04:16:04;;;;;;;15.20;10.37;;;19.60;99.90;;;;;;5016275;28;20457;-91
2022/05/13 04:17:17;;;;;;;13.20;9.47;;;19.60;99.90;;;;;;5017473;28;20456;-92
2022/05/13 04:19:42;;;;;;;14.47;8.73;;;19.60;99.90;;;;;;4998800;28;20477;-89
2022/05/13 04:22:09;;;;;;;13.03;9.40;;;19.50;99.90;;;;;;4999488;28;20210;-93
2022/05/13 04:24:35;;;;;;;14.40;9.60;;;19.50;99.90;;;;;;5000112;28;20208;-92
2022/05/13 04:27:01;;;;;;;16.40;10.50;;;19.50;99.90;;;;;;5016878;28;20458;-93
2022/05/13 04:29:26;;;;;;;13.57;10.13;;;19.50;99.90;;;;;;4999210;28;20171;-90
2022/05/13 04:31:52;;;;;;;11.27;8.70;;;19.50;99.90;;;;;;5016511;28;20200;-90
2022/05/13 04:34:18;;;;;;;15.90;9.80;;;19.50;99.90;;;;;;5003883;28;20185;-90
2022/05/13 04:36:43;;;;;;;17.97;10.90;;;19.60;99.90;;;;;;5023264;28;20204;-92
2022/05/13 04:39:09;;;;;;;16.93;10.57;;;19.60;99.90;;;;;;5004298;28;20179;-90
2022/05/13 04:44:20;;;;;;;16.67;10.70;;;19.70;99.90;;;;;;5021371;28;20210;-93
2022/05/13 04:46:46;;;;;;;15.03;9.37;;;19.80;99.90;;;;;;5004790;28;20463;-93
2022/05/13 04:49:12;;;;;;;15.87;11.07;;;19.80;99.90;;;;;;4996442;28;20505;-91
2022/05/13 04:51:38;;;;;;;18.60;10.97;;;19.90;99.90;;;;;;4997798;28;20826;-90
2022/05/13 04:54:05;;;;;;;259.77;172.80;;;20.00;99.90;;;;;;5014712;28;20184;-92
2022/05/13 04:56:31;;;;;;;401.83;211.47;;;20.10;99.90;;;;;;5014186;28;20458;-92
2022/05/13 04:58:58;;;;;;;20.80;11.53;;;20.10;99.90;;;;;;4996837;28;20948;-92
2022/05/13 05:01:24;;;;;;;12.20;10.40;;;20.20;99.90;;;;;;4996535;28;20589;-89
2022/05/13 05:03:51;;;;;;;17.50;10.77;;;20.30;99.90;;;;;;5015669;28;21192;-91
2022/05/13 05:06:18;;;;;;;15.50;10.37;;;20.30;99.90;;;;;;4997643;28;20436;-88
2022/05/13 05:08:44;;;;;;;15.10;9.87;;;20.40;99.90;;;;;;4996486;28;20866;-89
2022/05/13 05:11:12;;;;;;;15.80;10.17;;;20.50;99.90;;;;;;4996209;28;20521;-87
2022/05/13 05:13:42;;;;;;;13.37;9.40;;;20.50;99.90;;;;;;5013262;28;21027;-91
2022/05/13 05:16:09;;;;;;;17.77;9.97;;;20.60;99.90;;;;;;5015940;28;20532;-91
2022/05/13 05:18:36;;;;;;;16.33;10.63;;;20.70;99.90;;;;;;5014755;28;20827;-93
2022/05/13 05:21:03;;;;;;;17.80;11.10;;;20.80;99.90;;;;;;4998126;28;20513;-90
2022/05/13 05:23:32;;;;;;;15.57;10.23;;;20.90;99.90;;;;;;4997960;28;20438;-91
2022/05/13 05:25:59;;;;;;;13.60;9.87;;;20.90;99.90;;;;;;4997973;28;20489;-91
2022/05/13 05:28:28;;;;;;;14.10;9.07;;;21.00;99.90;;;;;;5015945;28;20436;-92
2022/05/13 05:30:55;;;;;;;14.37;9.20;;;21.10;99.90;;;;;;4997762;28;20491;-89
2022/05/13 05:33:21;;;;;;;17.40;9.57;;;21.20;99.90;;;;;;5014224;28;20883;-89
2022/05/13 05:35:46;;;;;;;14.73;9.93;;;21.30;99.90;;;;;;5015585;28;20450;-93
2022/05/13 05:38:12;;;;;;;16.17;10.77;;;21.30;99.90;;;;;;4998269;28;20210;-89
2022/05/13 05:40:39;;;;;;;14.63;9.83;;;21.40;99.90;;;;;;5018542;28;20235;-89
2022/05/13 05:43:11;;;;;;;17.53;10.00;;;21.50;99.90;;;;;;4993972;28;20722;-89
2022/05/13 05:45:40;;;;;;;13.13;11.40;;;21.60;99.90;;;;;;5011729;28;20452;-90
2022/05/13 05:48:08;;;;;;;17.57;11.30;;;21.70;99.90;;;;;;4996372;28;20547;-93
2022/05/13 05:50:35;;;;;;;13.20;10.50;;;21.80;99.90;;;;;;4991945;28;20465;-89
2022/05/13 05:53:01;;;;;;;15.30;11.73;;;21.80;99.90;;;;;;4996172;28;20510;-93
2022/05/13 05:58:15;;;;;;;16.77;11.50;;;22.00;99.90;;;;;;5017236;28;20250;-89
2022/05/13 06:00:47;;;;;;;16.80;9.70;;;22.10;99.90;;;;;;4993854;28;20825;-93
2022/05/13 06:03:13;;;;;;;13.53;9.70;;;22.20;99.90;;;;;;4989944;28;20552;-93
2022/05/13 06:05:41;;;;;;;14.60;9.77;;;22.30;99.90;;;;;;4994364;28;20491;-92
2022/05/13 06:08:08;;;;;;;13.30;9.40;;;22.40;99.90;;;;;;4976539;28;20488;-89
2022/05/13 06:10:35;;;;;;;12.53;10.17;;;22.40;99.90;;;;;;5005300;28;20961;-92
2022/05/13 06:13:02;;;;;;;15.73;9.60;;;22.50;99.90;;;;;;5001776;28;20482;-92
2022/05/13 06:15:28;;;;;;;14.07;9.70;;;22.60;99.90;;;;;;5004228;28;20495;-92
2022/05/13 06:17:56;;;;;;;11.97;9.33;;;22.60;99.90;;;;;;5010022;28;20441;-90
2022/05/13 06:20:27;;;;;;;13.80;9.80;;;22.70;99.90;;;;;;5009082;28;20969;-92
2022/05/13 06:22:53;;;;;;;10.10;8.57;;;22.80;99.90;;;;;;4996117;28;20548;-89
2022/05/13 06:25:21;;;;;;;11.03;8.83;;;22.80;99.90;;;;;;5016995;28;20405;-92
2022/05/13 06:27:49;;;;;;;9.13;7.00;;;22.90;99.90;;;;;;5016077;28;20506;-89
2022/05/13 06:30:24;;;;;;;8.80;7.47;;;22.90;99.90;;;;;;4993761;28;20468;-90
2022/05/13 06:32:50;;;;;;;7.70;5.90;;;23.10;99.90;;;;;;4994078;28;20507;-90
2022/05/13 06:35:16;;;;;;;8.63;6.77;;;23.20;99.90;;;;;;4997994;28;20424;-93
2022/05/13 06:37:42;;;;;;;7.73;5.77;;;23.30;99.90;;;;;;5013424;28;20456;-89
2022/05/13 06:40:08;;;;;;;10.50;5.90;;;23.40;99.90;;;;;;4993143;28;20724;-93
2022/05/13 06:42:34;;;;;;;6.70;6.00;;;23.60;99.90;;;;;;5015381;28;20203;-93
2022/05/13 06:44:59;;;;;;;9.30;6.33;;;23.70;99.90;;;;;;4997885;28;20429;-92
2022/05/13 06:47:25;;;;;;;6.17;5.40;;;23.70;99.90;;;;;;4994319;28;20675;-94
2022/05/13 06:49:51;;;;;;;5.40;4.50;;;23.80;99.90;;;;;;4998426;28;20656;-92
2022/05/13 06:52:17;;;;;;;5.90;5.30;;;23.80;99.90;;;;;;5010392;28;20199;-88
2022/05/13 06:54:43;;;;;;;5.90;4.80;;;23.90;99.90;;;;;;4998448;28;20635;-92
2022/05/13 06:57:10;;;;;;;7.83;4.43;;;24.00;99.90;;;;;;4978749;28;20204;-93
2022/05/13 06:59:37;;;;;;;5.60;4.27;;;24.00;99.90;;;;;;5008337;28;21025;-89
2022/05/13 07:02:03;;;;;;;4.83;3.80;;;24.00;99.90;;;;;;4995441;28;20489;-94
2022/05/13 07:04:29;;;;;;;5.30;4.80;;;24.10;99.90;;;;;;4992976;28;20423;-89
2022/05/13 07:06:55;;;;;;;5.63;4.23;;;24.10;99.50;;;;;;4995039;28;20458;-93
2022/05/13 07:09:21;;;;;;;5.60;4.97;;;24.20;99.30;;;;;;5014264;28;20476;-92
2022/05/13 07:11:47;;;;;;;6.97;5.73;;;24.20;99.10;;;;;;4996212;28;20592;-90
2022/05/13 07:14:16;;;;;;;6.07;4.77;;;24.30;98.90;;;;;;5008664;28;20180;-94
2022/05/13 07:16:41;;;;;;;5.23;4.73;;;24.30;98.90;;;;;;5015042;28;20206;-89
2022/05/13 07:19:07;;;;;;;6.60;4.17;;;24.30;98.70;;;;;;5012124;28;20433;-91
2022/05/13 07:21:33;;;;;;;5.07;4.07;;;24.40;98.90;;;;;;5016153;28;20264;-92
2022/05/13 07:23:59;;;;;;;4.83;4.13;;;24.60;98.90;;;;;;5001279;28;20194;-91
2022/05/13 07:26:25;;;;;;;4.67;4.20;;;24.60;98.40;;;;;;4998707;28;20441;-93
2022/05/13 07:28:51;;;;;;;4.33;3.87;;;24.70;98.30;;;;;;4997169;28;20189;-92
2022/05/13 07:31:16;;;;;;;4.20;3.80;;;24.90;98.60;;;;;;5011353;28;20193;-93
2022/05/13 07:33:42;;;;;;;5.10;4.60;;;24.90;97.90;;;;;;4992791;28;20255;-89
2022/05/13 07:36:08;;;;;;;5.47;3.90;;;25.00;98.00;;;;;;5011062;28;20232;-89
2022/05/13 07:38:34;;;;;;;4.53;3.60;;;25.10;98.60;;;;;;5006796;28;20194;-94
2022/05/13 07:41:19;;;;;;;5.63;4.63;;;25.30;98.60;;;;;;4987501;28;20595;-90
2022/05/13 07:43:45;;;;;;;4.43;4.03;;;25.40;98.60;;;;;;5010139;28;20411;-90
2022/05/13 07:46:12;;;;;;;5.77;5.00;;;25.50;98.70;;;;;;5009362;28;20471;-90
2022/05/13 07:48:39;;;;;;;5.10;4.43;;;25.70;99.00;;;;;;4991330;28;20445;-93
2022/05/13 07:51:05;;;;;;;5.00;4.50;;;25.80;99.10;;;;;;4992843;28;20849;-94
2022/05/13 07:53:31;;;;;;;5.03;4.50;;;25.90;97.20;;;;;;5013063;28;20523;-89
2022/05/13 07:55:58;;;;;;;5.00;4.50;;;25.90;96.80;;;;;;4997041;28;20436;-90
2022/05/13 07:58:23;;;;;;;5.07;3.70;;;26.00;96.50;;;;;;5011008;28;20453;-90
2022/05/13 08:00:49;;;;;;;3.90;3.50;;;26.00;97.00;;;;;;5009633;28;20831;-90
2022/05/13 08:03:16;;;;;;;4.73;4.23;;;26.20;96.90;;;;;;4981082;28;20207;-94
2022/05/13 08:05:46;;;;;;;4.37;3.97;;;26.10;95.70;;;;;;4992391;28;20486;-90
2022/05/13 08:08:22;;;;;;;4.67;4.27;;;26.10;95.50;;;;;;4990376;28;20649;-93
2022/05/13 08:10:51;;;;;;;4.07;3.67;;;26.20;95.90;;;;;;4991777;28;20420;-93
2022/05/13 08:13:18;;;;;;;4.53;4.13;;;26.30;95.60;;;;;;4990832;28;20495;-89
2022/05/13 08:15:44;;;;;;;3.87;3.43;;;26.30;95.40;;;;;;4986916;28;20823;-93
2022/05/13 08:18:09;;;;;;;5.20;4.27;;;26.40;96.20;;;;;;4993268;28;20782;-93
2022/05/13 08:20:36;;;;;;;4.90;4.17;;;26.50;95.90;;;;;;4990059;28;20457;-92
2022/05/13 08:23:02;;;;;;;4.83;4.10;;;26.60;95.70;;;;;;4987639;28;20576;-90
2022/05/13 08:25:28;;;;;;;4.50;3.57;;;26.70;95.60;;;;;;4988010;28;20418;-92
2022/05/13 08:27:54;;;;;;;7.10;3.80;;;26.80;95.00;;;;;;4988707;28;20488;-93
2022/05/13 08:30:20;;;;;;;4.57;3.77;;;26.90;95.10;;;;;;4991491;28;20932;-92
2022/05/13 08:32:46;;;;;;;4.20;3.80;;;27.00;95.70;;;;;;4989796;28;20453;-91
2022/05/13 08:35:13;;;;;;;3.47;2.90;;;27.20;94.80;;;;;;4992863;28;20449;-92
2022/05/13 08:37:49;;;;;;;3.23;2.97;;;27.20;94.00;;;;;;4985014;28;20842;-93
2022/05/13 08:40:43;;;;;;;5.40;3.97;;;27.30;94.00;;;;;;5003692;28;20476;-90
2022/05/13 08:43:24;;;;;;;3.30;3.00;;;27.40;93.70;;;;;;4992586;28;20497;-92
2022/05/13 08:45:55;;;;;;;3.90;3.50;;;27.50;93.50;;;;;;4989741;28;20437;-90
2022/05/13 08:48:31;;;;;;;4.50;3.57;;;27.50;93.30;;;;;;4992852;28;20438;-91
2022/05/13 08:51:28;;;;;;;4.13;3.80;;;27.60;93.80;;;;;;4995194;28;20946;-91
2022/05/13 08:54:14;;;;;;;3.80;2.97;;;27.70;92.70;;;;;;4990472;28;20868;-93
2022/05/13 08:56:46;;;;;;;3.93;3.40;;;27.70;93.40;;;;;;4991441;28;20469;-93
2022/05/13 08:59:21;;;;;;;4.47;3.30;;;27.80;92.90;;;;;;4990630;28;20422;-90
2022/05/13 09:01:53;;;;;;;4.50;4.10;;;27.80;92.30;;;;;;4994837;28;20820;-90
2022/05/13 09:04:36;;;;;;;3.37;3.07;;;27.90;92.90;;;;;;4995950;28;20428;-91
2022/05/13 09:07:06;;;;;;;3.40;3.03;;;27.90;92.30;;;;;;5001110;28;20521;-90
2022/05/13 09:09:34;;;;;;;3.80;3.50;;;28.00;92.00;;;;;;4999448;28;20426;-93
2022/05/13 09:12:24;;;;;;;3.23;2.97;;;28.10;92.60;;;;;;4992671;28;20822;-92
2022/05/13 09:15:07;;;;;;;4.43;3.10;;;28.20;92.40;;;;;;4983419;28;20468;-91
2022/05/13 09:18:02;;;;;;;3.23;2.97;;;28.20;91.70;;;;;;4980960;28;20519;-94
2022/05/13 09:20:28;;;;;;;3.40;3.00;;;28.30;91.40;;;;;;4985894;28;20485;-94
2022/05/13 09:22:58;;;;;;;3.00;2.70;;;28.30;91.40;;;;;;4993593;28;20445;-91
2022/05/13 09:25:33;;;;;;;3.10;2.90;;;28.40;91.30;;;;;;4998078;28;20186;-94
2022/05/13 09:28:06;;;;;;;2.97;2.77;;;28.40;91.20;;;;;;4990214;28;20477;-93
2022/05/13 09:30:38;;;;;;;3.37;3.07;;;28.50;91.50;;;;;;4991919;28;20460;-90
2022/05/13 09:33:25;;;;;;;3.20;2.90;;;28.60;91.30;;;;;;4993382;28;20486;-90
2022/05/13 09:36:16;;;;;;;3.47;3.13;;;28.70;91.40;;;;;;4992152;28;20683;-91
2022/05/13 09:38:50;;;;;;;4.50;3.40;;;28.60;91.00;;;;;;4982398;28;20438;-91
2022/05/13 09:41:34;;;;;;;3.47;3.17;;;28.70;91.10;;;;;;4992302;28;20484;-90
2022/05/13 09:44:17;;;;;;;4.10;3.70;;;28.80;91.30;;;;;;4996867;28;20437;-93
2022/05/13 09:47:07;;;;;;;3.30;3.00;;;28.80;90.50;;;;;;4993641;28;20457;-89
2022/05/13 09:49:37;;;;;;;4.00;3.57;;;28.80;90.20;;;;;;4993101;28;20429;-90
2022/05/13 09:52:11;;;;;;;3.37;3.07;;;28.70;90.10;;;;;;4991471;28;20458;-93
2022/05/13 09:54:39;;;;;;;3.30;2.77;;;28.70;90.30;;;;;;4993157;28;20446;-90
2022/05/13 09:57:14;;;;;;;3.23;2.93;;;28.70;90.20;;;;;;4997718;28;20465;-90
2022/05/13 09:59:56;;;;;;;3.53;3.23;;;28.70;90.20;;;;;;4990465;28;20478;-90
2022/05/13 10:02:31;;;;;;;4.43;3.03;;;28.80;91.10;;;;;;4988274;28;20452;-93
2022/05/13 10:05:17;;;;;;;3.57;3.27;;;28.90;90.50;;;;;;4998693;28;20454;-90
2022/05/13 10:07:59;;;;;;;4.07;3.10;;;29.00;90.60;;;;;;5000161;28;20451;-93
2022/05/13 10:13:58;;;;;;;3.70;3.23;;;29.10;90.70;;;;;;4986916;28;20473;-90
2022/05/13 10:16:34;;;;;;;3.47;3.17;;;29.10;90.40;;;;;;5016637;28;20509;-92
2022/05/13 10:19:07;;;;;;;3.67;3.37;;;29.10;90.10;;;;;;4993616;28;20859;-90
2022/05/13 10:21:46;;;;;;;3.23;2.93;;;29.10;89.30;;;;;;5005613;28;20543;-90
2022/05/13 10:24:44;;;;;;;3.37;3.07;;;29.10;90.00;;;;;;5011744;28;20481;-92
2022/05/13 10:27:24;;;;;;;4.20;3.80;;;29.10;90.00;;;;;;5012089;28;20520;-92
2022/05/13 10:29:55;;;;;;;3.80;3.30;;;29.20;90.20;;;;;;4995590;28;20435;-92
2022/05/13 10:32:26;;;;;;;4.57;3.33;;;29.20;90.00;;;;;;4994238;28;21015;-93
2022/05/13 10:34:55;;;;;;;3.00;2.70;;;29.20;89.50;;;;;;4995559;28;20427;-89
2022/05/13 10:37:30;;;;;;;3.40;2.70;;;29.30;89.10;;;;;;4993309;28;20454;-89
2022/05/13 10:40:07;;;;;;;3.50;3.20;;;29.30;89.10;;;;;;4995000;28;20502;-92
2022/05/13 10:42:37;;;;;;;3.90;3.33;;;29.30;89.10;;;;;;5012769;28;20458;-90
2022/05/13 10:45:15;;;;;;;4.03;3.57;;;29.30;89.20;;;;;;4999243;28;20480;-91
2022/05/13 10:47:45;;;;;;;3.80;3.50;;;29.30;88.30;;;;;;5014363;28;20467;-92
2022/05/13 10:50:23;;;;;;;4.87;3.00;;;29.30;87.40;;;;;;5023546;28;20437;-92
2022/05/13 10:52:49;;;;;;;3.50;3.20;;;29.30;87.10;;;;;;5014018;28;20495;-91
2022/05/13 10:55:28;;;;;;;4.13;3.17;;;29.30;88.00;;;;;;4996806;28;20458;-89
2022/05/13 10:58:03;;;;;;;4.57;3.70;;;29.30;87.40;;;;;;4991270;28;20297;-91
2022/05/13 11:00:37;;;;;;;3.43;3.13;;;29.30;87.70;;;;;;4988003;28;20558;-91
2022/05/13 11:03:54;;;;;;;3.40;3.10;;;29.30;86.70;;;;;;5013082;28;20482;-91
2022/05/13 11:06:42;;;;;;;3.60;3.13;;;29.40;89.30;;;;;;4961323;28;20449;-89
2022/05/13 11:09:26;;;;;;;3.60;3.30;;;29.40;89.20;;;;;;4996009;28;20976;-89
2022/05/13 11:12:01;;;;;;;3.37;3.00;;;29.50;87.80;;;;;;4997296;28;20466;-89
2022/05/13 11:14:45;;;;;;;4.03;3.73;;;29.50;87.00;;;;;;5013765;28;20417;-89
2022/05/13 11:17:42;;;;;;;3.57;3.20;;;29.50;87.50;;;;;;5009801;28;20461;-89
2022/05/13 11:20:32;;;;;;;4.30;3.80;;;29.60;88.50;;;;;;4990399;28;20563;-89
2022/05/13 11:23:23;;;;;;;5.60;3.47;;;29.60;87.40;;;;;;4996693;28;20466;-90
2022/05/13 11:26:15;;;;;;;7.40;3.50;;;29.60;88.00;;;;;;4990077;28;20419;-92
2022/05/13 11:28:59;;;;;;;3.50;3.20;;;29.60;87.30;;;;;;4986382;28;20444;-92
2022/05/13 11:32:00;;;;;;;4.20;3.80;;;29.70;87.00;;;;;;4995147;28;20449;-92
2022/05/13 11:34:37;;;;;;;3.70;3.40;;;29.70;87.30;;;;;;5011048;28;20422;-89
2022/05/13 11:37:07;;;;;;;3.97;3.40;;;29.80;87.30;;;;;;4990814;28;20477;-91
2022/05/13 11:39:45;;;;;;;4.17;3.83;;;29.80;86.10;;;;;;4989086;28;20474;-91
2022/05/13 11:42:34;;;;;;;4.03;3.73;;;29.80;86.30;;;;;;5001839;28;20469;-91
2022/05/13 11:45:30;;;;;;;4.10;3.70;;;29.80;85.30;;;;;;4985086;28;20450;-89
2022/05/13 11:47:59;;;;;;;3.83;3.53;;;29.90;85.40;;;;;;5004728;28;20457;-91
2022/05/13 11:50:28;;;;;;;3.50;3.20;;;29.80;84.70;;;;;;5003225;28;20423;-92
2022/05/13 11:52:56;;;;;;;4.23;3.53;;;29.80;85.00;;;;;;5003392;28;20471;-92
2022/05/13 11:55:23;;;;;;;4.23;3.60;;;29.80;85.00;;;;;;4994109;28;20526;-91
2022/05/13 11:57:55;;;;;;;5.20;3.90;;;29.80;86.00;;;;;;4982465;28;20473;-89
2022/05/13 12:00:38;;;;;;;3.63;3.33;;;29.80;85.30;;;;;;4991567;28;20874;-92
2022/05/13 12:03:12;;;;;;;4.60;3.77;;;29.80;85.50;;;;;;4993472;28;20994;-92
2022/05/13 12:05:49;;;;;;;4.07;3.60;;;29.80;85.50;;;;;;4984882;28;20725;-91
2022/05/13 12:08:23;;;;;;;4.30;3.90;;;29.70;85.60;;;;;;4998525;28;20444;-92
2022/05/13 12:10:49;;;;;;;3.90;3.60;;;29.60;85.30;;;;;;4983487;28;20420;-90
2022/05/13 12:13:50;;;;;;;3.87;3.57;;;29.60;85.20;;;;;;5000620;28;20918;-90
2022/05/13 12:16:32;;;;;;;4.13;3.70;;;29.60;85.70;;;;;;4987523;28;20646;-90
2022/05/13 12:19:15;;;;;;;4.30;3.90;;;29.50;85.30;;;;;;4978108;28;20829;-92
2022/05/13 12:21:54;;;;;;;4.13;3.73;;;29.50;85.00;;;;;;5007777;28;20682;-90
2022/05/13 12:24:23;;;;;;;4.13;3.73;;;29.50;84.80;;;;;;4986550;28;20426;-93
2022/05/13 12:26:51;;;;;;;5.90;4.67;;;29.40;84.50;;;;;;5006445;28;20949;-90
2022/05/13 12:29:36;;;;;;;4.30;3.53;;;29.50;85.10;;;;;;4989021;28;20420;-92
2022/05/13 12:32:02;;;;;;;3.70;3.40;;;29.50;84.80;;;;;;4979208;28;20652;-89
2022/05/13 12:37:54;;;;;;;3.70;3.40;;;29.60;85.30;;;;;;5003057;28;20282;-90
2022/05/13 12:40:23;;;;;;;4.10;3.53;;;29.60;84.80;;;;;;4923603;29;20476;-92
2022/05/13 12:42:52;;;;;;;3.50;3.20;;;29.60;84.30;;;;;;4983118;28;20460;-90
2022/05/13 12:45:21;;;;;;;4.83;3.27;;;29.60;84.00;;;;;;5013708;28;20439;-92
2022/05/13 12:48:17;;;;;;;3.97;3.57;;;29.60;83.70;;;;;;5012703;28;20529;-90
2022/05/13 12:51:10;;;;;;;3.70;3.40;;;29.60;83.70;;;;;;4990987;28;20433;-93
2022/05/13 12:53:43;;;;;;;5.10;3.80;;;29.50;83.80;;;;;;5009888;28;21070;-91
2022/05/13 12:56:11;;;;;;;4.67;4.30;;;29.50;84.10;;;;;;4976640;28;20511;-90
2022/05/13 12:58:41;;;;;;;4.47;4.07;;;29.50;83.80;;;;;;4990680;28;20451;-90
2022/05/13 13:01:11;;;;;;;4.20;3.80;;;29.50;83.80;;;;;;5008888;28;20867;-90
2022/05/13 13:03:39;;;;;;;3.70;2.93;;;29.50;83.90;;;;;;5012006;28;20486;-93
2022/05/13 13:06:11;;;;;;;4.40;3.53;;;29.50;83.70;;;;;;4995268;28;20431;-91
2022/05/13 13:08:40;;;;;;;5.77;3.50;;;29.50;85.10;;;;;;4998915;28;20447;-93
2022/05/13 13:11:33;;;;;;;4.53;3.80;;;29.60;84.10;;;;;;4984240;28;20462;-93
2022/05/13 13:14:18;;;;;;;4.10;3.67;;;29.60;84.00;;;;;;4990398;28;20413;-93
2022/05/13 13:17:00;;;;;;;7.80;4.07;;;29.60;84.00;;;;;;4973110;28;20523;-92
2022/05/13 13:19:29;;;;;;;3.93;3.30;;;29.60;83.40;;;;;;4985126;28;20810;-93